Time;durP1;ratioP1;P1;durP2;ratioP2;P2;SDS_P1;SDS_P2;PMS_P1;PMS_P2;Temp;Humidity;BMP_temperature;BMP_pressure;BME280_temperature;BME280_humidity;BME280_pressure;Samples;Min_cycle;Max_cycle;Signal;HPM_P1;HPM_P2
2021/12/04 00:06:25;;;;;;;2.83;0.90;;;;;;;-4.45;100.00;99141.94;5209398;23;20076;-85
2021/12/04 00:08:51;;;;;;;1.40;0.50;;;;;;;-3.82;100.00;99215.59;5001082;28;20037;-85
2021/12/04 00:11:17;;;;;;;0.73;0.50;;;;;;;-3.97;100.00;99240.72;5000186;28;20015;-86
2021/12/04 00:16:20;;;;;;;0.70;0.45;;;;;;;-4.55;100.00;99128.03;6103012;23;20202;-83
2021/12/04 00:21:20;;;;;;;1.30;0.45;;;;;;;-3.76;100.00;99239.66;6054564;23;20101;-83
2021/12/04 00:33:00;;;;;;;1.55;0.73;;;;;;;-4.19;100.00;99197.25;5469363;23;20053;-86
2021/12/04 01:50:33;;;;;;;2.35;1.00;;;;;;;-2.70;100.00;99502.19;5305619;23;20142;-83
2021/12/04 02:08:31;;;;;;;1.98;0.95;;;;;;;-3.81;100.00;99348.69;5879504;23;20921;-81
2021/12/04 02:59:42;;;;;;;1.65;1.05;;;;;;;-2.79;100.00;99579.41;5929860;23;21053;-79
2021/12/04 03:02:20;;;;;;;1.20;1.08;;;;;;;-4.29;100.00;99339.09;4869080;29;20046;-85
2021/12/04 03:46:19;;;;;;;2.35;0.90;;;;;;;-5.04;100.00;99287.31;5468249;23;20045;-84
2021/12/04 04:04:06;;;;;;;2.28;0.73;;;;;;;-5.30;99.44;99285.19;5161174;23;20053;-84
2021/12/04 04:06:31;;;;;;;1.00;0.55;;;;;;;-3.26;100.00;99605.69;4884041;29;20048;-83
2021/12/04 04:14:08;;;;;;;1.55;0.90;;;;;;;-3.25;99.70;99627.56;5481458;23;19931;-85
2021/12/04 04:16:37;;;;;;;2.20;0.90;;;;;;;-5.19;99.01;99323.59;4865007;29;20037;-86
2021/12/04 04:19:03;;;;;;;1.40;0.80;;;;;;;-5.10;99.16;99338.53;4879855;29;20025;-86
2021/12/04 04:21:30;;;;;;;1.85;0.70;;;;;;;-3.74;99.52;99542.59;5492706;23;20044;-85
2021/12/04 04:23:56;;;;;;;2.10;0.82;;;;;;;-5.20;99.47;99309.66;4890021;29;20023;-86
2021/12/04 04:26:21;;;;;;;2.58;0.70;;;;;;;-4.32;99.01;99472.47;4962019;23;20053;-86
2021/12/04 04:28:48;;;;;;;1.42;0.80;;;;;;;-4.37;99.07;99454.50;5015369;23;20087;-85
2021/12/04 04:31:15;;;;;;;2.78;0.70;;;;;;;-5.11;98.45;99336.03;5663685;23;19999;-86
2021/12/04 04:33:43;;;;;;;0.70;0.60;;;;;;;-3.25;98.67;99632.81;4872519;29;20018;-86
2021/12/04 04:36:30;;;;;;;2.53;0.60;;;;;;;-5.17;98.49;99326.91;5633303;23;20011;-81
2021/12/04 05:00:51;;;;;;;1.55;0.80;;;;;;;-3.27;98.20;99680.31;4914465;29;20096;-85
2021/12/04 05:13:42;;;;;;;2.45;0.90;;;;;;;-4.19;99.40;99543.94;4915560;29;20037;-85
2021/12/04 05:16:19;;;;;;;1.17;0.90;;;;;;;-5.28;99.27;99376.84;5389459;23;20011;-83
2021/12/04 05:23:55;;;;;;;1.48;0.80;;;;;;;-5.41;98.68;99377.06;4884767;29;20079;-86
2021/12/04 05:31:31;;;;;;;1.70;1.00;;;;;;;-3.59;99.27;99667.41;5060099;23;20046;-84
2021/12/04 05:33:57;;;;;;;2.05;1.00;;;;;;;-3.57;99.27;99665.50;4867668;29;20025;-86
2021/12/04 05:36:24;;;;;;;1.38;0.90;;;;;;;-3.59;99.26;99689.28;4885491;29;20128;-85
2021/12/04 05:38:49;;;;;;;1.23;0.82;;;;;;;-4.68;99.13;99500.16;4869667;29;20009;-84
2021/12/04 05:41:16;;;;;;;2.10;1.27;;;;;;;-5.41;99.50;99382.31;4868581;29;20062;-85
2021/12/04 05:43:47;;;;;;;1.35;1.10;;;;;;;-4.88;99.47;99458.13;4885558;29;20060;-85
2021/12/04 05:46:15;;;;;;;2.53;1.17;;;;;;;-4.95;99.30;99475.34;4884750;29;20077;-85
2021/12/04 05:54:02;;;;;;;2.70;1.30;;;;;;;-4.35;98.97;99606.66;5447156;23;20053;-85
2021/12/04 05:56:29;;;;;;;2.45;1.20;;;;;;;-5.46;99.14;99389.75;4885534;29;20039;-85
2021/12/04 05:58:55;;;;;;;1.75;1.00;;;;;;;-5.21;98.76;99446.94;4853662;29;20033;-85
2021/12/04 06:01:22;;;;;;;4.18;1.00;;;;;;;-4.35;98.89;99601.41;4900238;29;20056;-85
2021/12/04 06:03:51;;;;;;;2.72;1.30;;;;;;;-3.75;99.30;99688.97;4887535;29;20011;-86
2021/12/04 06:06:19;;;;;;;3.55;1.40;;;;;;;-5.22;98.81;99457.59;4902689;29;20048;-85
2021/12/04 06:08:45;;;;;;;1.30;0.90;;;;;;;-4.94;98.74;99526.84;4872607;29;20045;-85
2021/12/04 06:11:11;;;;;;;1.60;1.17;;;;;;;-5.19;98.71;99444.22;4903577;29;20041;-83
2021/12/04 06:13:37;;;;;;;1.67;0.95;;;;;;;-4.66;98.23;99559.44;4887085;29;20037;-83
2021/12/04 06:16:02;;;;;;;1.60;1.30;;;;;;;-5.68;98.49;99382.88;4902592;29;20025;-85
2021/12/04 06:18:28;;;;;;;1.60;1.10;;;;;;;-3.43;98.73;99725.56;4886300;29;20025;-86
2021/12/04 06:23:38;;;;;;;2.67;1.67;;;;;;;-4.80;98.56;99529.16;4903188;29;20088;-85
2021/12/04 06:26:07;;;;;;;3.13;1.80;;;;;;;-3.40;98.56;99743.72;4881484;29;20045;-82
2021/12/04 06:28:33;;;;;;;7.60;5.43;;;;;;;-5.34;98.35;99432.41;4885081;29;20020;-84
2021/12/04 06:31:00;;;;;;;1.58;1.20;;;;;;;-4.89;98.61;99498.44;4914940;29;20020;-83
2021/12/04 06:33:27;;;;;;;4.50;2.55;;;;;;;-5.43;98.78;99431.38;4902961;29;20029;-85
2021/12/04 06:35:53;;;;;;;2.72;2.10;;;;;;;-5.44;98.41;99434.97;4902959;29;20009;-86
2021/12/04 06:38:19;;;;;;;3.10;1.08;;;;;;;-5.34;98.46;99462.06;4903209;29;20049;-86
2021/12/04 06:40:47;;;;;;;1.80;1.10;;;;;;;-5.35;98.54;99433.38;4902337;29;20204;-85
2021/12/04 06:43:14;;;;;;;3.28;1.10;;;;;;;-3.47;98.65;99733.88;4902387;29;20036;-85
2021/12/04 06:45:49;;;;;;;1.38;0.98;;;;;;;-4.90;98.65;99530.03;4902757;29;20025;-85
2021/12/04 06:48:21;;;;;;;2.05;1.30;;;;;;;-5.46;98.63;99450.03;4886737;29;20009;-85
2021/12/04 06:50:52;;;;;;;13.35;10.15;;;;;;;-4.67;98.77;99557.75;4901374;29;20037;-85
2021/12/04 06:53:26;;;;;;;1.98;1.77;;;;;;;-5.46;98.61;99463.13;4885068;29;20009;-84
2021/12/04 06:55:54;;;;;;;1.73;1.17;;;;;;;-4.81;99.27;99558.13;4868024;29;20006;-85
2021/12/04 06:58:21;;;;;;;2.13;1.35;;;;;;;-4.29;98.74;99648.16;4866131;29;20030;-85
2021/12/04 07:00:48;;;;;;;1.92;1.42;;;;;;;-5.67;99.09;99450.03;4856848;29;20042;-86
2021/12/04 07:03:16;;;;;;;47.90;21.27;;;;;;;-5.71;98.55;99443.41;4929299;23;20034;-86
2021/12/04 07:05:43;;;;;;;14.55;10.60;;;;;;;-5.30;98.79;99529.00;4869415;29;20018;-85
2021/12/04 07:16:01;;;;;;;2.42;2.17;;;;;;;-5.09;99.45;99564.91;5356592;23;20284;-84
2021/12/04 07:18:27;;;;;;;2.05;1.42;;;;;;;-4.70;99.73;99634.16;4886687;29;20006;-84
2021/12/04 07:20:53;;;;;;;2.97;1.60;;;;;;;-5.26;99.34;99532.22;4885474;29;20044;-85
2021/12/04 07:25:54;;;;;;;2.25;1.52;;;;;;;-3.70;99.70;99775.31;5201534;23;20045;-85
2021/12/04 07:28:20;;;;;;;2.33;1.40;;;;;;;-4.78;99.59;99618.22;4890597;29;20081;-85
2021/12/04 07:30:51;;;;;;;3.10;2.15;;;;;;;-4.91;99.54;99596.59;4904999;29;20692;-86
2021/12/04 07:33:17;;;;;;;4.03;2.28;;;;;;;-5.60;99.78;99495.72;4890357;29;20099;-84
2021/12/04 07:35:44;;;;;;;3.22;1.58;;;;;;;-5.29;99.53;99553.47;4890177;29;20013;-85
2021/12/04 07:40:47;;;;;;;3.38;1.80;;;;;;;-3.74;99.60;99805.44;5755412;23;20041;-83
2021/12/04 07:43:13;;;;;;;2.75;1.90;;;;;;;-5.57;99.22;99528.72;4889862;29;20051;-85
2021/12/04 07:45:39;;;;;;;3.50;2.05;;;;;;;-3.70;99.47;99826.09;4905547;29;20028;-83
2021/12/04 07:48:06;;;;;;;2.50;1.90;;;;;;;-4.86;99.53;99639.88;4901849;29;20061;-82
2021/12/04 07:50:33;;;;;;;2.58;1.77;;;;;;;-4.35;99.27;99720.41;4886009;29;20029;-83
2021/12/04 07:52:59;;;;;;;1.77;1.50;;;;;;;-4.60;99.44;99687.53;4866830;29;20033;-85
2021/12/04 07:55:25;;;;;;;2.45;1.48;;;;;;;-5.62;99.48;99529.09;4869728;29;20044;-82
2021/12/04 07:57:51;;;;;;;1.92;1.48;;;;;;;-4.16;99.53;99779.25;4891820;29;20036;-82
2021/12/04 08:00:19;;;;;;;2.00;1.23;;;;;;;-3.75;99.84;99833.53;4852310;29;20035;-80
2021/12/04 08:02:45;;;;;;;2.45;1.42;;;;;;;-3.82;99.90;99841.09;4869609;29;20064;-81
2021/12/04 08:05:11;;;;;;;2.22;1.42;;;;;;;-3.91;99.83;99817.41;4870786;29;20344;-79
2021/12/04 08:07:38;;;;;;;3.17;1.55;;;;;;;-3.92;99.90;99824.47;4885469;29;20416;-80
2021/12/04 08:10:06;;;;;;;2.42;1.83;;;;;;;-3.82;99.63;99835.84;4881665;29;20033;-81
2021/12/04 08:12:32;;;;;;;1.88;1.60;;;;;;;-3.98;99.79;99808.38;4867062;29;20035;-80
2021/12/04 08:14:57;;;;;;;1.60;1.35;;;;;;;-3.73;99.57;99854.44;4869355;29;20441;-78
2021/12/04 08:17:25;;;;;;;3.10;1.50;;;;;;;-3.69;99.20;99853.22;4888594;29;20029;-79
2021/12/04 08:19:51;;;;;;;2.05;1.60;;;;;;;-3.80;98.90;99823.44;4867604;29;20025;-80
2021/12/04 08:22:16;;;;;;;2.13;1.55;;;;;;;-3.58;99.24;99859.19;4882949;29;20066;-79
2021/12/04 08:24:44;;;;;;;3.70;1.50;;;;;;;-3.76;99.15;99828.41;4885860;29;20033;-80
2021/12/04 08:27:10;;;;;;;2.75;1.55;;;;;;;-3.71;99.04;99848.06;4875421;29;20033;-80
2021/12/04 08:29:36;;;;;;;3.22;1.48;;;;;;;-3.57;99.08;99873.22;4876769;29;20039;-81
2021/12/04 08:32:02;;;;;;;2.22;1.42;;;;;;;-3.61;98.78;99864.75;4872345;29;20176;-81
2021/12/04 08:34:28;;;;;;;2.60;1.50;;;;;;;-3.65;98.70;99850.19;4889222;29;20056;-82
2021/12/04 08:36:53;;;;;;;2.60;1.83;;;;;;;-3.56;99.04;99866.97;4883085;29;20057;-82
2021/12/04 08:39:20;;;;;;;3.60;1.77;;;;;;;-4.29;98.74;99742.69;4885913;24;20210;-84
2021/12/04 08:41:47;;;;;;;3.30;1.75;;;;;;;-5.36;98.38;99592.47;4886064;29;20033;-83
2021/12/04 08:44:15;;;;;;;3.42;2.33;;;;;;;-5.22;98.73;99618.38;4881810;29;20089;-84
2021/12/04 08:46:41;;;;;;;18.10;10.10;;;;;;;-4.10;98.53;99778.75;4877986;29;20367;-81
2021/12/04 08:49:08;;;;;;;29.05;14.90;;;;;;;-4.59;98.73;99719.84;4873897;29;20053;-83
2021/12/04 08:51:35;;;;;;;9.55;4.97;;;;;;;-3.52;98.88;99884.16;4875779;29;20028;-80
2021/12/04 08:54:01;;;;;;;6.10;4.28;;;;;;;-5.00;98.19;99645.41;4862746;29;20036;-85
2021/12/04 08:56:29;;;;;;;3.72;2.97;;;;;;;-3.29;98.79;99897.13;4886755;29;20040;-84
2021/12/04 08:58:56;;;;;;;3.72;2.65;;;;;;;-4.50;98.03;99733.03;4886166;29;20037;-84
2021/12/04 09:01:25;;;;;;;2.40;1.67;;;;;;;-4.71;98.17;99705.97;4880388;29;20049;-81
2021/12/04 09:03:58;;;;;;;3.22;2.15;;;;;;;-4.57;98.26;99738.91;4868827;29;20073;-85
2021/12/04 09:06:24;;;;;;;4.45;2.10;;;;;;;-4.10;98.18;99782.19;4885060;29;20084;-85
2021/12/04 09:08:50;;;;;;;2.08;1.48;;;;;;;-4.84;97.75;99679.06;4885821;29;20009;-84
2021/12/04 09:11:21;;;;;;;2.50;1.50;;;;;;;-5.12;98.00;99644.66;4885197;29;20041;-84
2021/12/04 09:13:49;;;;;;;3.65;1.92;;;;;;;-4.11;98.10;99777.06;4868475;29;20010;-81
2021/12/04 09:16:17;;;;;;;2.75;1.83;;;;;;;-4.13;98.30;99807.91;4885537;29;20012;-84
2021/12/04 09:18:43;;;;;;;2.78;1.63;;;;;;;-4.94;97.18;99658.03;4881083;29;20050;-83
2021/12/04 09:21:10;;;;;;;2.38;1.50;;;;;;;-4.87;97.83;99637.34;4883480;29;20097;-85
2021/12/04 09:23:40;;;;;;;1.92;1.40;;;;;;;-4.86;97.45;99657.41;4884461;29;20006;-84
2021/12/04 09:26:11;;;;;;;2.30;1.40;;;;;;;-4.30;97.57;99718.22;4884871;29;20013;-84
2021/12/04 09:29:07;;;;;;;2.88;2.05;;;;;;;-4.57;97.21;99662.78;4869162;29;20017;-84
2021/12/04 09:40:23;;;;;;;2.60;1.30;;;;;;;-4.37;96.97;99685.59;4886970;29;20082;-84
2021/12/04 10:04:27;;;;;;;2.45;1.40;;;;;;;-4.10;95.40;99650.84;4849732;29;20015;-83
2021/12/04 10:12:54;;;;;;;2.72;1.85;;;;;;;-3.83;95.51;99668.63;4832463;29;20049;-84
2021/12/04 10:15:54;;;;;;;2.30;1.55;;;;;;;-3.84;94.99;99642.44;4844230;29;20038;-83
2021/12/04 10:35:00;;;;;;;2.35;1.80;;;;;;;-2.67;93.91;99767.03;4847533;29;20030;-84
2021/12/04 10:37:28;;;;;;;1.40;0.85;;;;;;;-2.71;94.42;99753.31;4855433;29;20043;-81
2021/12/04 10:40:04;;;;;;;2.25;1.50;;;;;;;-2.55;94.28;99771.19;4878600;29;20025;-83
2021/12/04 10:42:47;;;;;;;1.90;1.33;;;;;;;-3.03;93.64;99673.81;4881538;29;20032;-84
2021/12/04 10:45:13;;;;;;;1.90;1.25;;;;;;;-2.45;93.82;99769.38;4850740;29;20071;-83
2021/12/04 10:47:50;;;;;;;3.83;1.38;;;;;;;-2.64;93.27;99757.03;4874493;29;20029;-83
2021/12/04 10:52:52;;;;;;;1.75;1.23;;;;;;;-1.32;93.80;99979.50;4883358;29;20045;-83
2021/12/04 10:55:30;;;;;;;2.47;1.70;;;;;;;-1.25;93.91;99956.84;4869437;29;20081;-83
2021/12/04 11:03:42;;;;;;;2.17;0.98;;;;;;;-2.84;93.56;99697.47;4888018;29;20041;-83
2021/12/04 11:23:36;;;;;;;1.70;1.30;;;;;;;-1.24;92.88;99933.91;4887537;29;20033;-83
2021/12/04 11:47:14;;;;;;;1.95;1.13;;;;;;;-0.96;93.11;99995.50;4887373;29;20021;-83
2021/12/04 11:49:40;;;;;;;2.13;1.30;;;;;;;-2.55;92.81;99736.09;4886664;29;20101;-83
2021/12/04 11:52:14;;;;;;;2.20;1.60;;;;;;;-1.20;92.68;99930.00;4886893;29;20017;-83
2021/12/04 11:55:01;;;;;;;2.28;1.20;;;;;;;-1.29;92.31;99910.59;4870713;29;20093;-82
2021/12/04 11:57:32;;;;;;;1.40;1.10;;;;;;;-2.04;92.78;99809.50;4887135;29;20025;-83
2021/12/04 12:00:25;;;;;;;3.50;1.70;;;;;;;-2.57;92.43;99725.72;4887233;29;20009;-83
2021/12/04 12:03:11;;;;;;;2.28;1.20;;;;;;;-2.07;92.43;99832.66;4886617;29;20053;-83
2021/12/04 12:05:50;;;;;;;2.42;1.70;;;;;;;-1.77;92.45;99858.00;4869420;29;20016;-83
2021/12/04 12:08:32;;;;;;;2.60;1.52;;;;;;;-2.05;92.63;99820.16;4883126;29;20085;-82
2021/12/04 12:11:24;;;;;;;2.47;1.52;;;;;;;-2.26;92.92;99794.81;4871366;29;20535;-80
2021/12/04 12:14:05;;;;;;;3.13;1.50;;;;;;;-0.94;92.55;99967.13;4854144;29;20052;-81
2021/12/04 12:16:36;;;;;;;4.40;1.73;;;;;;;-0.97;93.30;100002.59;4838942;29;20033;-82
2021/12/04 12:19:09;;;;;;;2.08;1.60;;;;;;;-0.94;92.96;99996.19;4877013;29;20587;-80
2021/12/04 12:21:55;;;;;;;5.45;1.70;;;;;;;-0.95;92.98;99989.25;4868669;29;20021;-81
2021/12/04 12:36:24;;;;;;;4.55;1.63;;;;;;;-0.95;92.67;100027.06;4844221;29;20038;-79
2021/12/04 12:38:57;;;;;;;2.35;2.13;;;;;;;-1.06;92.98;100002.63;4862067;29;20070;-81
2021/12/04 12:41:43;;;;;;;2.35;1.90;;;;;;;-1.03;93.33;100021.63;4866968;29;20049;-80
2021/12/04 12:44:13;;;;;;;2.25;1.60;;;;;;;-1.06;93.17;100007.91;4866774;29;20060;-82
2021/12/04 12:46:57;;;;;;;1.95;1.75;;;;;;;-1.06;92.95;100013.19;4874030;29;20025;-82
2021/12/04 12:49:38;;;;;;;4.25;1.70;;;;;;;-1.03;92.69;100026.91;4868217;29;20116;-79
2021/12/04 12:52:13;;;;;;;2.33;2.00;;;;;;;-0.98;93.12;100019.41;4870172;29;20154;-80
2021/12/04 12:54:39;;;;;;;2.53;1.75;;;;;;;-1.02;93.45;100027.78;4869266;29;20037;-79
2021/12/04 12:57:23;;;;;;;3.47;2.50;;;;;;;-0.97;92.85;100026.34;4869672;29;20026;-80
2021/12/04 13:14:23;;;;;;;2.88;2.00;;;;;;;-1.09;93.35;100053.06;4876415;29;20061;-81
2021/12/04 13:17:01;;;;;;;3.03;2.25;;;;;;;-1.31;93.54;100028.66;4858839;29;20498;-82
2021/12/04 13:19:28;;;;;;;3.30;1.98;;;;;;;-1.19;93.37;100056.56;4874768;29;20407;-82
2021/12/04 13:21:57;;;;;;;2.22;1.67;;;;;;;-1.07;93.45;100067.78;4872979;29;20070;-80
2021/12/04 13:24:30;;;;;;;3.85;2.30;;;;;;;-1.09;93.63;100077.69;4868535;29;20466;-80
2021/12/04 13:26:56;;;;;;;3.80;2.20;;;;;;;-1.06;93.64;100080.03;4869361;29;20033;-80
2021/12/04 13:29:26;;;;;;;3.63;1.73;;;;;;;-1.24;93.92;100076.44;4872837;29;20037;-81
2021/12/04 13:31:54;;;;;;;2.88;1.90;;;;;;;-1.30;94.19;100071.72;4879035;29;20021;-83
2021/12/04 13:34:26;;;;;;;2.60;1.65;;;;;;;-1.56;94.13;100048.53;4884059;29;20016;-83
2021/12/04 13:36:53;;;;;;;4.05;2.50;;;;;;;-1.29;94.28;100078.66;4879771;29;20033;-83
2021/12/04 13:39:20;;;;;;;3.72;2.28;;;;;;;-1.17;94.23;100093.38;4876194;29;20057;-82
2021/12/04 13:41:48;;;;;;;3.47;2.13;;;;;;;-1.25;94.17;100086.19;4873903;29;20037;-82
2021/12/04 13:44:16;;;;;;;8.95;5.55;;;;;;;-1.26;94.29;100099.50;4858831;29;20010;-82
2021/12/04 13:46:45;;;;;;;5.50;3.45;;;;;;;-1.33;94.47;100101.84;4861188;29;20056;-82
2021/12/04 13:49:15;;;;;;;5.20;2.70;;;;;;;-1.41;94.22;100099.09;4872235;29;20121;-81
2021/12/04 13:51:42;;;;;;;4.13;2.65;;;;;;;-1.38;94.53;100111.19;4869117;29;20456;-82
2021/12/04 13:54:09;;;;;;;4.38;2.22;;;;;;;-1.80;94.57;100030.50;4873442;29;20034;-81
2021/12/04 13:56:36;;;;;;;5.25;2.67;;;;;;;-1.56;94.12;100061.72;4876798;29;20049;-82
2021/12/04 13:59:05;;;;;;;2.55;1.95;;;;;;;-1.38;95.07;100108.56;4863289;29;20341;-84
2021/12/04 14:01:41;;;;;;;4.20;2.38;;;;;;;-1.36;94.57;100101.31;4876539;29;20127;-81
2021/12/04 14:04:11;;;;;;;3.28;1.88;;;;;;;-1.43;95.06;100109.78;4863806;29;20049;-82
2021/12/04 14:06:37;;;;;;;5.05;2.42;;;;;;;-1.45;95.06;100111.75;4883730;29;20021;-83
2021/12/04 14:09:07;;;;;;;4.35;2.78;;;;;;;-1.67;94.84;100069.78;4880600;29;20136;-82
2021/12/04 14:11:39;;;;;;;3.22;2.20;;;;;;;-1.48;95.41;100117.28;4875442;29;20017;-80
2021/12/04 14:14:28;;;;;;;4.13;2.50;;;;;;;-1.46;95.21;100119.78;4877233;29;20038;-81
2021/12/04 14:17:02;;;;;;;4.18;2.67;;;;;;;-1.44;95.24;100118.69;4872663;29;20044;-80
2021/12/04 14:19:29;;;;;;;3.97;2.53;;;;;;;-1.63;95.49;100104.63;4868442;29;20034;-82
2021/12/04 14:22:05;;;;;;;2.95;2.10;;;;;;;-1.47;95.68;100126.03;4848929;29;20040;-83
2021/12/04 14:24:41;;;;;;;4.93;2.70;;;;;;;-1.49;95.62;100127.97;4879556;29;20009;-82
2021/12/04 14:27:10;;;;;;;5.70;2.72;;;;;;;-1.64;95.59;100092.44;4864929;29;20002;-82
2021/12/04 14:29:42;;;;;;;4.53;2.60;;;;;;;-1.91;95.61;100065.75;4868602;29;20040;-81
2021/12/04 14:32:08;;;;;;;4.43;2.60;;;;;;;-1.78;95.88;100080.50;4879043;29;20412;-83
2021/12/04 14:34:35;;;;;;;5.05;2.33;;;;;;;-1.64;95.65;100118.81;4861842;29;20037;-82
2021/12/04 14:37:13;;;;;;;3.95;2.17;;;;;;;-1.68;96.04;100115.63;4871508;29;20133;-84
2021/12/04 14:39:42;;;;;;;4.18;2.40;;;;;;;-1.87;96.83;100100.59;4868181;29;20067;-83
2021/12/04 14:42:21;;;;;;;4.43;2.63;;;;;;;-1.73;96.79;100113.38;4994583;23;20037;-84
2021/12/04 14:44:54;;;;;;;5.43;2.53;;;;;;;-1.75;97.10;100120.59;4897857;29;20057;-83
2021/12/04 14:47:21;;;;;;;4.03;2.33;;;;;;;-1.83;96.63;100116.97;4904908;29;20018;-83
2021/12/04 14:49:59;;;;;;;4.22;2.60;;;;;;;-2.13;96.82;100081.81;4902088;29;20044;-83
2021/12/04 14:52:26;;;;;;;3.78;2.53;;;;;;;-3.64;96.96;99856.25;5327313;23;20045;-84
2021/12/04 14:54:52;;;;;;;4.80;2.65;;;;;;;-3.67;97.32;99874.97;4857171;29;20073;-84
2021/12/04 14:57:26;;;;;;;3.45;2.75;;;;;;;-3.29;97.18;99915.53;4866352;29;20022;-83
2021/12/04 15:00:12;;;;;;;3.05;2.60;;;;;;;-3.73;97.26;99855.28;4875535;29;20048;-83
2021/12/04 15:02:38;;;;;;;5.13;2.80;;;;;;;-3.48;97.25;99889.97;4859201;29;20025;-84
2021/12/04 15:05:06;;;;;;;4.05;2.58;;;;;;;-3.90;97.39;99838.31;4867329;29;20065;-82
2021/12/04 15:07:34;;;;;;;4.97;2.92;;;;;;;-2.02;97.61;100137.06;4918542;23;20058;-83
2021/12/04 15:10:16;;;;;;;4.57;2.90;;;;;;;-2.03;97.92;100127.47;4860987;29;20028;-84
2021/12/04 15:12:41;;;;;;;4.45;3.10;;;;;;;-2.13;97.72;100122.16;4881541;29;20058;-82
2021/12/04 15:15:10;;;;;;;4.10;2.55;;;;;;;-2.03;97.77;100153.84;4881138;29;20032;-85
2021/12/04 15:17:41;;;;;;;4.63;3.10;;;;;;;-2.06;98.12;100146.19;4875966;29;20053;-82
2021/12/04 15:20:19;;;;;;;5.63;3.08;;;;;;;-2.16;98.29;100153.22;4867553;29;20010;-84
2021/12/04 15:22:47;;;;;;;5.43;2.90;;;;;;;-2.21;98.15;100144.91;4875802;29;20038;-83
2021/12/04 15:25:19;;;;;;;5.00;3.50;;;;;;;-2.10;98.02;100173.78;4843233;29;20022;-83
2021/12/04 15:27:45;;;;;;;4.30;2.88;;;;;;;-2.13;98.41;100177.53;4855761;29;20038;-81
2021/12/04 15:30:15;;;;;;;5.70;3.05;;;;;;;-2.27;98.31;100150.72;4871757;29;20037;-81
2021/12/04 15:32:42;;;;;;;4.55;3.28;;;;;;;-2.20;98.64;100172.94;4845873;29;20367;-80
2021/12/04 15:35:45;;;;;;;5.03;3.35;;;;;;;-2.25;98.38;100169.84;4863750;29;20363;-81
2021/12/04 15:38:17;;;;;;;4.50;3.00;;;;;;;-2.27;98.69;100174.44;4864650;29;20055;-80
2021/12/04 15:41:01;;;;;;;5.47;3.55;;;;;;;-2.51;98.66;100138.69;4850262;29;20034;-80
2021/12/04 15:43:38;;;;;;;5.93;3.70;;;;;;;-2.44;98.94;100171.44;4862064;29;20464;-81
2021/12/04 15:46:20;;;;;;;5.70;3.40;;;;;;;-2.74;99.28;100138.00;4871721;29;20033;-80
2021/12/04 15:54:24;;;;;;;4.93;3.58;;;;;;;-2.54;99.50;100189.00;4882447;29;20097;-80
2021/12/04 15:56:54;;;;;;;5.85;3.90;;;;;;;-2.62;99.22;100183.53;4871841;29;20102;-81
2021/12/04 15:59:42;;;;;;;6.32;4.43;;;;;;;-2.59;99.22;100196.44;4870284;29;20057;-82
2021/12/04 16:02:12;;;;;;;9.27;4.55;;;;;;;-2.66;99.39;100198.75;4865048;29;20041;-81
2021/12/04 16:04:38;;;;;;;4.70;3.38;;;;;;;-2.84;99.50;100172.19;4865892;29;20025;-80
2021/12/04 16:07:05;;;;;;;6.85;4.78;;;;;;;-2.60;99.71;100208.78;4848763;29;20129;-81
2021/12/04 16:09:39;;;;;;;7.60;4.70;;;;;;;-2.64;99.33;100217.06;4848892;29;20065;-81
2021/12/04 16:12:12;;;;;;;5.20;3.78;;;;;;;-2.76;99.44;100199.66;4865027;29;20021;-81
2021/12/04 16:14:40;;;;;;;9.05;4.63;;;;;;;-2.68;100.00;100226.16;4838819;29;20420;-81
2021/12/04 16:17:09;;;;;;;5.40;3.70;;;;;;;-2.67;99.83;100228.69;4863558;29;20573;-81
2021/12/04 16:19:36;;;;;;;6.13;3.80;;;;;;;-2.75;99.43;100209.22;4871320;29;20112;-82
2021/12/04 16:22:07;;;;;;;6.10;3.97;;;;;;;-2.61;99.36;100230.81;4848520;29;20082;-82
2021/12/04 16:24:33;;;;;;;8.38;4.25;;;;;;;-2.58;99.09;100248.16;4879081;29;20045;-82
2021/12/04 16:27:14;;;;;;;5.65;3.70;;;;;;;-2.51;99.24;100249.31;4853370;29;20025;-82
2021/12/04 16:29:49;;;;;;;4.22;3.20;;;;;;;-2.54;99.14;100254.00;4870156;29;20121;-81
2021/12/04 16:32:30;;;;;;;;;;;;;;;-2.58;99.45;100256.06;4869047;29;20117;-82
2021/12/04 16:40:11;;;;;;;11.60;7.35;;;;;;;-2.65;99.17;100258.38;4870002;29;20036;-81
2021/12/04 16:42:38;;;;;;;8.10;5.00;;;;;;;-2.65;99.31;100258.38;4854112;29;20073;-81
2021/12/04 16:45:07;;;;;;;11.55;6.72;;;;;;;-2.65;98.74;100258.38;4839358;29;20515;-81
2021/12/04 16:47:41;;;;;;;8.55;4.85;;;;;;;-3.04;99.35;100204.59;4882034;29;20037;-82
2021/12/04 16:50:12;;;;;;;9.57;5.13;;;;;;;-2.68;98.81;100263.03;4861338;29;20021;-82
2021/12/04 16:58:14;;;;;;;8.18;5.25;;;;;;;-2.80;99.18;100269.34;4854311;29;20049;-81
2021/12/04 17:00:46;;;;;;;6.75;4.45;;;;;;;-2.78;99.29;100281.41;5004848;23;20065;-82
2021/12/04 17:03:12;;;;;;;8.13;4.95;;;;;;;-2.77;99.08;100279.63;4895746;29;20017;-81
2021/12/04 17:05:46;;;;;;;34.28;13.80;;;;;;;-2.83;99.29;100284.41;4880125;29;20033;-81
2021/12/04 17:08:12;;;;;;;9.10;5.85;;;;;;;-2.79;99.72;100298.16;4872310;29;20040;-81
2021/12/04 17:10:39;;;;;;;9.52;5.63;;;;;;;-2.79;99.47;100295.53;4894724;29;20029;-83
2021/12/04 17:13:06;;;;;;;24.50;10.73;;;;;;;-2.87;99.38;100288.25;4864851;29;20028;-83
2021/12/04 17:15:34;;;;;;;16.77;8.13;;;;;;;-2.92;99.33;100286.97;4881620;29;20044;-82
2021/12/04 17:18:05;;;;;;;118.50;40.88;;;;;;;-3.47;99.22;100196.72;4879980;29;20084;-81
2021/12/04 17:20:33;;;;;;;75.07;26.63;;;;;;;-2.93;99.11;100301.09;4861539;29;20097;-82
2021/12/04 17:22:58;;;;;;;22.27;9.70;;;;;;;-2.93;99.02;100307.19;4878536;29;20040;-80
2021/12/04 17:25:33;;;;;;;24.45;13.43;;;;;;;-2.98;99.16;100305.88;4880757;29;20025;-84
2021/12/04 17:27:58;;;;;;;;;;;;;;;-3.02;99.77;100321.09;4865388;29;20036;-81
2021/12/04 17:30:24;;;;;;;8.05;3.75;;;;;;;-3.18;99.56;100286.44;4897508;29;19923;-80
2021/12/04 17:32:50;;;;;;;7.20;4.70;;;;;;;-3.14;99.08;100299.25;4900925;29;20077;-81
2021/12/04 17:35:18;;;;;;;12.48;7.25;;;;;;;-3.37;98.94;100279.19;4881561;29;20056;-81
2021/12/04 17:37:43;;;;;;;6.68;4.13;;;;;;;-3.20;99.24;100304.16;4877455;29;21621;-79
2021/12/04 17:40:09;;;;;;;7.47;4.43;;;;;;;-3.05;99.14;100331.03;4882757;29;20043;-83
2021/12/04 17:42:36;;;;;;;5.68;4.30;;;;;;;-3.07;99.70;100331.16;4892637;29;20049;-83
2021/12/04 17:45:04;;;;;;;8.85;4.10;;;;;;;-3.09;99.58;100333.06;4894482;29;20031;-82
2021/12/04 17:47:31;;;;;;;8.18;4.18;;;;;;;-3.20;99.83;100330.47;4898917;29;20029;-81
2021/12/04 17:49:58;;;;;;;7.90;4.07;;;;;;;-3.27;99.80;100316.97;4891828;29;20049;-83
2021/12/04 17:52:24;;;;;;;7.38;4.07;;;;;;;-3.11;99.82;100341.09;4894500;29;20089;-83
2021/12/04 17:54:49;;;;;;;5.72;3.95;;;;;;;-3.31;99.83;100310.28;4867909;29;20041;-83
2021/12/04 17:57:15;;;;;;;6.57;4.13;;;;;;;-3.19;99.65;100345.28;4880404;29;20269;-83
2021/12/04 17:59:43;;;;;;;6.60;4.60;;;;;;;-3.08;99.72;100350.53;4890769;29;20395;-81
2021/12/04 18:02:16;;;;;;;7.15;4.85;;;;;;;-3.14;99.73;100351.03;4873755;29;20052;-82
2021/12/04 18:04:48;;;;;;;12.18;6.60;;;;;;;-3.09;99.77;100359.38;4890319;29;20017;-84
2021/12/04 18:07:22;;;;;;;7.97;4.43;;;;;;;-3.25;99.69;100343.97;4853870;29;20059;-84
2021/12/04 18:09:49;;;;;;;7.82;4.20;;;;;;;-3.15;99.66;100368.59;4874506;29;20052;-81
2021/12/04 18:12:35;;;;;;;7.95;4.07;;;;;;;-3.29;100.00;100346.97;4857819;29;20040;-81
2021/12/04 18:15:02;;;;;;;7.30;4.18;;;;;;;-3.38;99.81;100336.25;4882888;29;20473;-82
2021/12/04 18:17:27;;;;;;;9.70;4.88;;;;;;;-3.20;100.00;100373.41;4888691;29;20028;-84
2021/12/04 18:19:56;;;;;;;7.68;4.60;;;;;;;-3.37;100.00;100340.53;4862468;29;20121;-81
2021/12/04 18:22:21;;;;;;;7.13;4.50;;;;;;;-3.31;100.00;100366.38;4868923;29;20029;-81
2021/12/04 18:24:47;;;;;;;6.97;3.85;;;;;;;-3.38;100.00;100356.44;4879955;29;20051;-81
2021/12/04 18:27:14;;;;;;;7.50;4.25;;;;;;;-3.23;100.00;100383.34;4888931;29;20468;-82
2021/12/04 18:29:40;;;;;;;6.47;4.03;;;;;;;-3.23;100.00;100383.34;4862031;29;20056;-82
2021/12/04 18:32:07;;;;;;;8.18;4.53;;;;;;;-3.24;100.00;100395.66;4895071;29;20006;-82
2021/12/04 18:34:34;;;;;;;8.43;4.30;;;;;;;-3.24;100.00;100390.41;4866629;29;20040;-81
2021/12/04 18:37:01;;;;;;;7.70;4.32;;;;;;;-4.69;100.00;100188.78;4967333;23;20068;-81
2021/12/04 18:39:28;;;;;;;8.25;4.40;;;;;;;-4.73;100.00;100168.03;4882282;29;20100;-81
2021/12/04 18:41:58;;;;;;;7.45;4.50;;;;;;;-5.10;100.00;100103.53;4902067;29;20044;-84
2021/12/04 18:44:26;;;;;;;7.38;4.78;;;;;;;-3.86;100.00;100288.31;4903057;29;20021;-83
2021/12/04 18:46:52;;;;;;;7.03;4.45;;;;;;;-4.25;100.00;100237.88;4883701;29;20030;-82
2021/12/04 18:49:22;;;;;;;6.72;3.75;;;;;;;-5.15;100.00;100092.56;4884671;29;20013;-83